Time;durP1;ratioP1;P1;durP2;ratioP2;P2;SDS_P1;SDS_P2;PMS_P1;PMS_P2;Temp;Humidity;BMP_temperature;BMP_pressure;BME280_temperature;BME280_humidity;BME280_pressure;Samples;Min_cycle;Max_cycle;Signal;HPM_P1;HPM_P2
2022/05/05 00:02:17;;;;;;;6.30;2.00;;;;;;;10.15;43.61;99383.42;25121;1313;3026480;-65
2022/05/05 00:04:46;;;;;;;4.00;2.10;;;;;;;10.14;43.56;99378.42;25129;1312;3026714;-65
2022/05/05 00:07:15;;;;;;;8.20;2.10;;;;;;;10.13;44.22;99380.41;25165;1312;3028697;-66
2022/05/05 00:09:44;;;;;;;7.70;2.30;;;;;;;10.00;43.92;99386.97;25170;1313;3056805;-65
2022/05/05 00:15:00;;;;;;;6.30;2.30;;;;;;;9.81;44.32;99382.52;25170;1313;3052925;-65
2022/05/05 00:17:32;;;;;;;9.10;2.40;;;;;;;9.73;44.11;99380.70;25187;1313;3026635;-67
2022/05/05 00:20:01;;;;;;;5.20;2.00;;;;;;;9.59;43.93;99389.17;25166;1312;3050991;-65
2022/05/05 00:22:30;;;;;;;9.20;2.10;;;;;;;9.70;43.67;99388.88;25153;1313;3026182;-66
2022/05/05 00:24:59;;;;;;;10.40;2.30;;;;;;;9.75;43.49;99385.45;25229;1312;3051380;-65
2022/05/05 00:27:29;;;;;;;6.30;2.20;;;;;;;9.71;43.91;99388.11;25162;1312;3026381;-66
2022/05/05 00:29:58;;;;;;;8.20;2.40;;;;;;;9.64;43.88;99385.20;25159;1314;3068449;-65
2022/05/05 00:32:27;;;;;;;8.40;2.50;;;;;;;9.55;43.78;99387.45;25099;1313;3026565;-65
2022/05/05 00:34:57;;;;;;;7.80;1.90;;;;;;;9.55;42.89;99388.39;25129;1312;3050521;-65
2022/05/05 00:37:25;;;;;;;13.20;2.40;;;;;;;9.46;43.44;99386.77;25178;1312;3026684;-65
2022/05/05 00:39:54;;;;;;;5.10;1.80;;;;;;;9.51;43.62;99391.20;25123;1313;3051187;-65
2022/05/05 00:42:23;;;;;;;6.70;2.10;;;;;;;9.51;43.45;99388.23;25209;1312;3026620;-65
2022/05/05 00:44:52;;;;;;;5.10;2.10;;;;;;;9.34;43.65;99401.26;25071;1315;3048618;-65
2022/05/05 00:47:22;;;;;;;5.40;1.80;;;;;;;9.38;43.72;99401.19;25184;1313;3026906;-65
2022/05/05 00:49:52;;;;;;;13.60;2.70;;;;;;;9.31;43.71;99402.11;25143;1312;3058773;-65
2022/05/05 00:52:21;;;;;;;5.70;2.00;;;;;;;9.33;43.90;99404.83;25156;1313;3028461;-65
2022/05/05 00:54:50;;;;;;;5.30;2.20;;;;;;;9.21;44.43;99400.58;25173;1313;3026895;-65
2022/05/05 00:57:19;;;;;;;9.40;2.20;;;;;;;9.18;43.99;99402.66;25172;1312;3056102;-65
2022/05/05 00:59:48;;;;;;;7.10;2.20;;;;;;;9.23;43.92;99407.30;25132;1313;3026504;-64
2022/05/05 01:02:18;;;;;;;6.80;2.50;;;;;;;9.29;43.75;99416.76;25142;1316;3052870;-65
2022/05/05 01:04:48;;;;;;;4.80;2.10;;;;;;;9.22;43.89;99413.12;25129;1313;3027148;-65
2022/05/05 01:07:18;;;;;;;6.60;2.20;;;;;;;9.13;44.46;99413.12;25133;1313;3026753;-65
2022/05/05 01:09:48;;;;;;;9.30;2.40;;;;;;;9.14;44.50;99414.43;25152;1313;3053475;-65
2022/05/05 01:12:17;;;;;;;6.20;2.20;;;;;;;9.06;44.91;99409.44;25116;1313;3026354;-65
2022/05/05 01:14:49;;;;;;;7.10;2.40;;;;;;;9.12;44.54;99417.49;25183;1312;3026056;-65
2022/05/05 01:17:18;;;;;;;4.90;1.60;;;;;;;9.07;44.48;99419.86;25202;1312;3052507;-64
2022/05/05 01:19:47;;;;;;;8.90;2.30;;;;;;;8.92;44.84;99431.17;25151;1313;3028301;-65
2022/05/05 01:22:17;;;;;;;6.20;2.40;;;;;;;8.88;45.12;99427.55;25147;1312;3053359;-65
2022/05/05 01:30:23;;;;;;;7.40;1.80;;;;;;;8.77;45.32;99434.11;25192;1313;3049187;-65
2022/05/05 01:32:52;;;;;;;13.50;2.70;;;;;;;8.77;45.47;99438.10;25218;1313;3026246;-64
2022/05/05 01:35:21;;;;;;;8.80;2.40;;;;;;;8.73;45.58;99434.81;25234;1313;3058146;-64
2022/05/05 01:37:50;;;;;;;6.50;1.80;;;;;;;8.72;45.88;99438.16;25189;1312;3026660;-65
2022/05/05 01:40:19;;;;;;;11.90;2.10;;;;;;;8.73;46.03;99443.18;25223;1313;3054257;-64
2022/05/05 01:42:48;;;;;;;6.00;2.10;;;;;;;8.69;46.05;99451.63;25147;1312;3029096;-64
2022/05/05 01:45:27;;;;;;;6.00;2.40;;;;;;;8.77;45.89;99450.51;25138;1312;3055441;-65
2022/05/05 01:47:57;;;;;;;7.70;2.00;;;;;;;8.78;45.89;99464.80;25130;1312;3026594;-64
2022/05/05 01:50:25;;;;;;;10.30;2.50;;;;;;;8.71;46.24;99463.21;25174;1312;3026416;-65
2022/05/05 01:52:55;;;;;;;8.70;2.40;;;;;;;8.71;46.16;99462.18;25145;1315;3054772;-65
2022/05/05 01:55:24;;;;;;;12.40;2.20;;;;;;;8.76;46.19;99467.11;25176;1312;3026860;-65
2022/05/05 01:57:53;;;;;;;6.50;2.30;;;;;;;8.76;46.19;99471.50;25162;1313;3048152;-64
2022/05/05 02:00:23;;;;;;;10.90;2.00;;;;;;;8.70;46.29;99474.26;25210;1316;3026514;-65
2022/05/05 02:02:54;;;;;;;6.80;2.10;;;;;;;8.70;46.33;99480.21;25170;1312;3026594;-65
2022/05/05 02:05:24;;;;;;;12.60;2.10;;;;;;;8.75;46.29;99480.99;25166;1313;3028178;-63
2022/05/05 02:07:53;;;;;;;8.60;2.30;;;;;;;8.75;46.24;99480.64;25143;1312;3026681;-65
2022/05/05 02:10:22;;;;;;;6.40;2.00;;;;;;;8.74;46.39;99482.42;25138;1312;3055599;-65
2022/05/05 02:12:53;;;;;;;9.30;2.20;;;;;;;8.75;46.36;99485.02;25194;1313;3026622;-66
2022/05/05 02:15:22;;;;;;;10.20;2.30;;;;;;;8.72;46.49;99489.17;25147;1313;3051578;-64
2022/05/05 02:17:51;;;;;;;6.30;2.10;;;;;;;8.76;46.49;99490.39;25178;1312;3030685;-64
2022/05/05 02:20:20;;;;;;;7.50;2.00;;;;;;;8.68;46.71;99495.52;25126;1312;3026959;-65
2022/05/05 02:22:49;;;;;;;6.90;2.00;;;;;;;8.61;46.77;99496.06;25240;1312;3052885;-64
2022/05/05 02:25:18;;;;;;;7.70;2.00;;;;;;;8.61;46.93;99503.07;25336;1312;3027528;-65
2022/05/05 02:27:51;;;;;;;7.00;1.90;;;;;;;8.57;47.04;99505.69;25399;1313;3050945;-64
2022/05/05 02:30:21;;;;;;;7.00;1.90;;;;;;;8.50;47.22;99510.42;25344;1315;3026791;-65
2022/05/05 02:32:50;;;;;;;7.50;2.10;;;;;;;8.44;47.56;99518.52;25165;1313;3026983;-65
2022/05/05 02:35:20;;;;;;;6.30;2.10;;;;;;;8.44;47.58;99518.03;25174;1312;3026233;-65
2022/05/05 02:40:37;;;;;;;5.80;2.20;;;;;;;8.33;47.90;99524.48;25203;1312;3054693;-64
2022/05/05 02:43:06;;;;;;;8.90;2.10;;;;;;;8.35;48.11;99526.32;25175;1312;3026758;-64
2022/05/05 02:45:36;;;;;;;9.00;2.60;;;;;;;8.41;47.88;99530.73;25163;1312;3051350;-67
2022/05/05 02:48:05;;;;;;;5.70;2.20;;;;;;;8.48;47.83;99532.17;25133;1313;3026574;-64
2022/05/05 02:50:34;;;;;;;8.20;2.10;;;;;;;8.54;47.65;99536.40;25178;1313;3028560;-64
2022/05/05 02:54:47;;;;;;;6.60;2.10;;;;;;;8.47;48.02;99538.82;25166;1313;3054583;-63
2022/05/05 02:55:52;;;;;;;6.70;2.60;;;;;;;8.46;48.02;99543.05;25185;1312;3053637;-66
2022/05/05 02:58:21;;;;;;;7.50;2.20;;;;;;;8.44;48.22;99546.46;25176;1312;3026076;-63
2022/05/05 03:00:51;;;;;;;10.00;2.00;;;;;;;8.42;48.37;99549.55;25155;1316;3055408;-64
2022/05/05 03:03:20;;;;;;;10.00;2.40;;;;;;;8.39;48.50;99555.42;25131;1313;3027195;-65
2022/05/05 03:05:49;;;;;;;8.00;1.90;;;;;;;8.34;48.68;99561.97;25113;1313;3050791;-64
2022/05/05 03:08:19;;;;;;;5.00;2.00;;;;;;;8.38;48.67;99566.30;25184;1312;3028837;-64
2022/05/05 03:10:48;;;;;;;4.80;2.10;;;;;;;8.33;48.69;99571.96;25182;1315;3068601;-64
2022/05/05 03:13:17;;;;;;;7.40;2.70;;;;;;;8.29;48.95;99576.67;25181;1313;3026686;-65
2022/05/05 03:15:46;;;;;;;6.00;2.40;;;;;;;8.33;48.73;99580.49;25122;1312;3052974;-64
2022/05/05 03:18:15;;;;;;;11.50;2.20;;;;;;;8.36;48.85;99578.78;25185;1312;3027325;-66
2022/05/05 03:20:44;;;;;;;6.20;1.80;;;;;;;8.45;48.62;99578.58;25135;1312;3055015;-63
2022/05/05 03:23:13;;;;;;;9.90;2.70;;;;;;;8.41;48.73;99582.58;25114;1312;3026595;-64
2022/05/05 03:25:42;;;;;;;5.40;2.10;;;;;;;8.47;48.67;99586.34;25099;1313;3049250;-64
2022/05/05 03:28:11;;;;;;;7.40;1.70;;;;;;;8.50;48.51;99582.67;25149;1313;3027700;-67
2022/05/05 03:30:41;;;;;;;6.50;1.80;;;;;;;8.41;49.09;99592.67;25141;1312;3056171;-63
2022/05/05 03:33:10;;;;;;;14.30;2.70;;;;;;;8.39;49.04;99596.97;25129;1313;3026249;-64
2022/05/05 03:35:39;;;;;;;6.70;1.70;;;;;;;8.29;49.42;99599.72;25101;1313;3026899;-62
2022/05/05 03:38:09;;;;;;;7.20;1.90;;;;;;;8.38;49.28;99600.69;25102;1313;3056966;-64
2022/05/05 03:40:38;;;;;;;10.50;2.90;;;;;;;8.43;49.23;99604.27;25106;1312;3025885;-62
2022/05/05 03:43:07;;;;;;;10.10;2.50;;;;;;;8.50;49.05;99602.56;25135;1312;3055360;-64
2022/05/05 03:45:36;;;;;;;6.00;2.00;;;;;;;8.52;49.04;99606.64;25098;1312;3026991;-64
2022/05/05 03:48:05;;;;;;;11.70;2.10;;;;;;;8.52;49.17;99610.48;25143;1312;3053912;-65
2022/05/05 03:50:36;;;;;;;5.30;2.30;;;;;;;8.64;48.81;99610.29;25114;1312;3027266;-65
2022/05/05 03:53:05;;;;;;;7.60;3.00;;;;;;;8.65;48.97;99616.86;25123;1312;3026676;-63
2022/05/05 03:55:34;;;;;;;4.30;2.10;;;;;;;8.67;49.09;99615.67;25113;1312;3027072;-64
2022/05/05 03:58:03;;;;;;;6.80;2.30;;;;;;;8.65;49.18;99618.44;25093;1313;3026748;-64
2022/05/05 04:00:32;;;;;;;13.30;2.60;;;;;;;8.68;49.32;99620.71;25109;1313;3056716;-64
2022/05/05 04:05:49;;;;;;;5.00;2.00;;;;;;;8.79;49.27;99624.70;25143;1313;3052722;-65
2022/05/05 04:08:19;;;;;;;5.30;2.00;;;;;;;8.88;49.11;99626.16;25100;1312;3026789;-63
2022/05/05 04:10:48;;;;;;;5.40;2.60;;;;;;;8.89;49.07;99628.02;25186;1312;3026614;-64
2022/05/05 04:13:16;;;;;;;6.30;2.20;;;;;;;8.93;49.11;99631.32;25119;1313;3051276;-65
2022/05/05 04:15:46;;;;;;;5.90;2.30;;;;;;;8.95;49.42;99633.35;25185;1312;3027053;-64
2022/05/05 04:18:15;;;;;;;7.90;2.80;;;;;;;8.96;49.39;99634.69;25147;1312;3026468;-64
2022/05/05 04:20:47;;;;;;;5.70;2.50;;;;;;;9.08;49.20;99640.88;25127;1312;3026889;-64
2022/05/05 04:23:16;;;;;;;7.30;2.30;;;;;;;9.13;49.18;99636.79;25131;1313;3026298;-62
2022/05/05 04:25:45;;;;;;;12.30;2.80;;;;;;;9.11;49.26;99637.23;25068;1313;3026535;-64
2022/05/05 04:28:14;;;;;;;7.80;2.70;;;;;;;9.08;49.72;99644.89;25170;1316;3054628;-66
2022/05/05 04:30:43;;;;;;;13.40;2.60;;;;;;;9.16;49.68;99643.10;25125;1312;3026496;-64
2022/05/05 04:33:12;;;;;;;11.00;2.80;;;;;;;9.22;49.65;99649.06;25145;1312;3052057;-62
2022/05/05 04:35:42;;;;;;;9.30;2.50;;;;;;;9.23;49.74;99651.79;25163;1313;3026671;-65
2022/05/05 04:38:11;;;;;;;11.00;2.80;;;;;;;9.30;49.74;99657.39;25121;1313;3027248;-66
2022/05/05 04:40:40;;;;;;;5.30;2.30;;;;;;;9.39;49.58;99656.02;25150;1313;3050750;-67
2022/05/05 04:43:09;;;;;;;4.70;2.10;;;;;;;9.43;49.66;99657.58;25125;1316;3026699;-64
2022/05/05 04:45:40;;;;;;;10.00;2.50;;;;;;;9.50;49.57;99662.44;25144;1313;3057034;-63
2022/05/05 04:48:09;;;;;;;13.10;4.30;;;;;;;9.52;49.62;99660.61;25048;1313;3029081;-65
2022/05/05 04:50:39;;;;;;;9.40;2.30;;;;;;;9.63;49.32;99665.80;25126;1313;3053352;-65
2022/05/05 04:53:08;;;;;;;13.90;2.00;;;;;;;9.69;49.36;99671.04;25165;1313;3028607;-64
2022/05/05 04:55:37;;;;;;;8.70;2.20;;;;;;;9.68;49.46;99673.73;25147;1313;3056127;-64
2022/05/05 04:58:06;;;;;;;6.50;1.80;;;;;;;9.77;48.86;99674.50;25181;1313;3028166;-64
2022/05/05 05:00:36;;;;;;;11.10;2.10;;;;;;;9.76;49.00;99685.05;25096;1316;3050904;-64
2022/05/05 05:03:32;;;;;;;8.90;2.00;;;;;;;9.83;48.80;99679.41;25081;1312;3026544;-64
2022/05/05 05:05:54;;;;;;;6.80;2.40;;;;;;;9.93;48.75;99685.20;25133;1313;3052330;-64
2022/05/05 05:08:23;;;;;;;7.10;2.00;;;;;;;10.02;48.62;99689.73;25141;1313;3028879;-63
2022/05/05 05:10:53;;;;;;;11.70;2.70;;;;;;;10.13;48.45;99687.10;25163;1312;3054977;-64
2022/05/05 05:13:22;;;;;;;12.80;2.10;;;;;;;10.15;48.60;99695.00;25169;1312;3027155;-64
2022/05/05 05:15:51;;;;;;;7.50;1.90;;;;;;;10.15;48.64;99690.10;25135;1313;3050948;-65
2022/05/05 05:18:20;;;;;;;10.00;2.10;;;;;;;10.29;48.44;99694.59;25161;1312;3026238;-64
2022/05/05 05:20:49;;;;;;;8.70;2.10;;;;;;;10.29;48.14;99698.42;25131;1313;3068717;-63
2022/05/05 05:23:18;;;;;;;5.80;1.90;;;;;;;10.31;48.51;99695.52;25177;1313;3026599;-64
2022/05/05 05:25:47;;;;;;;8.10;2.40;;;;;;;10.40;48.42;99703.31;25160;1313;3053831;-64
2022/05/05 05:28:16;;;;;;;11.80;2.40;;;;;;;10.49;48.16;99705.94;25136;1313;3027914;-64
2022/05/05 05:30:45;;;;;;;13.10;2.80;;;;;;;10.56;47.79;99710.41;25172;1316;3055182;-65
2022/05/05 05:33:14;;;;;;;12.70;3.10;;;;;;;10.58;47.93;99719.98;25116;1313;3026172;-62
2022/05/05 05:35:47;;;;;;;6.90;2.20;;;;;;;10.66;47.51;99718.80;25060;1313;3051433;-68
2022/05/05 05:38:20;;;;;;;9.70;2.30;;;;;;;10.65;47.34;99721.50;25191;1313;3027599;-65
2022/05/05 05:40:49;;;;;;;7.90;2.40;;;;;;;10.67;47.47;99725.75;25131;1313;3026908;-65
2022/05/05 05:43:18;;;;;;;10.50;2.10;;;;;;;10.64;47.55;99731.20;25185;1313;3028798;-64
2022/05/05 05:45:47;;;;;;;6.60;1.90;;;;;;;10.66;47.42;99732.48;25166;1313;3052933;-65
2022/05/05 05:48:16;;;;;;;10.40;2.50;;;;;;;10.71;47.07;99736.20;25156;1316;3028251;-65
2022/05/05 05:50:45;;;;;;;11.30;2.50;;;;;;;10.83;46.90;99734.86;25096;1312;3050406;-65
2022/05/05 05:53:14;;;;;;;11.60;2.10;;;;;;;10.90;46.72;99736.33;25186;1313;3026621;-65
2022/05/05 05:55:43;;;;;;;11.40;2.40;;;;;;;10.96;46.62;99738.46;25132;1312;3056152;-65
2022/05/05 05:58:11;;;;;;;7.60;1.90;;;;;;;10.93;46.54;99735.50;25163;1312;3030140;-65
2022/05/05 06:00:41;;;;;;;6.40;2.30;;;;;;;10.93;46.73;99740.41;25154;1312;3054949;-67
2022/05/05 06:05:57;;;;;;;6.80;1.80;;;;;;;10.94;46.11;99747.88;25208;1312;3052785;-65
2022/05/05 06:08:26;;;;;;;8.90;2.10;;;;;;;10.96;46.08;99743.38;25146;1312;3026747;-64
2022/05/05 06:10:55;;;;;;;12.30;2.50;;;;;;;11.03;45.64;99754.73;25151;1313;3048893;-64
2022/05/05 06:13:24;;;;;;;9.00;2.30;;;;;;;11.01;45.70;99759.22;25154;1316;3026456;-67
2022/05/05 06:15:54;;;;;;;4.90;2.00;;;;;;;11.12;45.59;99762.64;25139;1312;3070483;-65
2022/05/05 06:18:23;;;;;;;5.40;1.70;;;;;;;11.16;45.51;99765.19;25141;1312;3026492;-65
2022/05/05 06:20:53;;;;;;;6.60;2.40;;;;;;;11.26;45.28;99765.15;25165;1312;3053696;-65
2022/05/05 06:23:22;;;;;;;11.50;2.80;;;;;;;11.34;45.70;99771.70;25172;1313;3026953;-65
2022/05/05 06:25:52;;;;;;;11.40;2.20;;;;;;;11.46;45.21;99765.93;25156;1318;3026482;-66
2022/05/05 06:28:20;;;;;;;9.90;2.40;;;;;;;11.42;44.85;99778.02;25146;1313;3026842;-65
2022/05/05 06:30:50;;;;;;;11.30;2.00;;;;;;;11.39;44.88;99783.33;25147;1312;3069208;-64
2022/05/05 06:33:20;;;;;;;9.30;1.70;;;;;;;11.48;44.79;99783.53;25152;1312;3026970;-65
2022/05/05 06:35:49;;;;;;;7.20;2.00;;;;;;;11.52;44.84;99786.92;25152;1313;3050413;-66
2022/05/05 06:38:18;;;;;;;14.70;2.00;;;;;;;11.55;44.79;99786.23;25143;1313;3026482;-66
2022/05/05 06:40:47;;;;;;;5.60;2.00;;;;;;;11.69;44.57;99791.55;25145;1313;3053754;-64
2022/05/05 06:43:16;;;;;;;5.50;2.00;;;;;;;11.81;44.40;99791.17;25143;1313;3026861;-65
2022/05/05 06:45:46;;;;;;;5.60;1.70;;;;;;;11.97;43.66;99792.17;25068;1313;3026831;-65
2022/05/05 06:48:16;;;;;;;6.00;2.00;;;;;;;12.08;43.57;99790.09;25101;1312;3052211;-65
2022/05/05 06:50:45;;;;;;;8.20;1.90;;;;;;;12.24;42.95;99793.33;25181;1312;3026415;-63
2022/05/05 06:53:15;;;;;;;6.20;2.00;;;;;;;12.30;42.35;99795.60;25090;1313;3027473;-62
2022/05/05 06:55:46;;;;;;;11.60;2.10;;;;;;;12.31;41.94;99800.41;25075;1313;3026809;-64
2022/05/05 06:58:15;;;;;;;11.80;2.10;;;;;;;12.42;41.71;99799.05;25043;1313;3026972;-65
2022/05/05 07:03:33;;;;;;;11.50;2.10;;;;;;;12.38;40.85;99803.70;25123;1312;3052157;-62
2022/05/05 07:06:02;;;;;;;7.60;1.90;;;;;;;12.46;40.22;99809.73;25118;1312;3027640;-64
2022/05/05 07:10:52;;;;;;;6.90;1.60;;;;;;;12.48;40.38;99808.52;25237;1313;3068271;-61
2022/05/05 07:11:23;;;;;;;9.60;2.00;;;;;;;12.46;40.24;99820.09;25641;1312;3048841;-63
2022/05/05 07:13:52;;;;;;;10.90;1.90;;;;;;;12.47;40.31;99828.60;25649;1312;3026815;-64
2022/05/05 07:16:21;;;;;;;16.90;1.70;;;;;;;12.57;40.05;99827.63;25472;1312;3026836;-63
2022/05/05 07:18:50;;;;;;;9.50;1.80;;;;;;;12.66;39.48;99829.73;25179;1312;3050884;-63
2022/05/05 07:21:22;;;;;;;9.00;2.00;;;;;;;12.77;39.35;99831.63;25182;1313;3027545;-64
2022/05/05 07:23:51;;;;;;;8.60;2.10;;;;;;;12.77;38.91;99831.98;25139;1313;3070759;-63
2022/05/05 07:26:20;;;;;;;12.40;1.80;;;;;;;12.91;38.45;99829.88;25174;1313;3026321;-63
2022/05/05 07:28:49;;;;;;;9.80;2.00;;;;;;;12.90;38.19;99821.48;25150;1313;3050835;-62
2022/05/05 07:31:18;;;;;;;13.80;2.00;;;;;;;12.98;38.23;99821.82;25082;1313;3028633;-63
2022/05/05 07:33:47;;;;;;;7.60;1.50;;;;;;;13.15;37.80;99823.89;25144;1313;3054850;-61
2022/05/05 07:36:16;;;;;;;12.90;2.20;;;;;;;13.26;37.18;99827.23;25151;1313;3027019;-63
2022/05/05 07:38:45;;;;;;;11.40;2.00;;;;;;;13.35;36.73;99829.00;25092;1313;3051606;-64
2022/05/05 07:41:14;;;;;;;14.90;1.80;;;;;;;13.49;36.86;99826.83;25162;1313;3026483;-64
2022/05/05 07:43:43;;;;;;;7.50;1.50;;;;;;;13.67;36.45;99837.58;25079;1319;3056827;-63
2022/05/05 07:46:14;;;;;;;10.80;1.70;;;;;;;13.82;36.24;99829.88;25137;1313;3026418;-64
2022/05/05 07:48:43;;;;;;;9.30;2.20;;;;;;;13.82;35.77;99828.27;25118;1316;3051873;-63
2022/05/05 07:51:12;;;;;;;13.30;1.80;;;;;;;13.87;35.32;99834.27;25109;1314;3027277;-66
2022/05/05 07:54:34;;;;;;;7.40;1.60;;;;;;;13.95;35.05;99831.48;25134;1313;3026727;-64
2022/05/05 07:56:31;;;;;;;5.00;1.10;;;;;;;13.85;34.38;99834.05;25117;1313;3055895;-63
2022/05/05 07:59:01;;;;;;;10.00;1.30;;;;;;;13.91;34.29;99832.58;25167;1312;3030056;-63
2022/05/05 08:01:30;;;;;;;8.50;1.30;;;;;;;14.09;33.75;99827.52;25115;1313;3027645;-63
2022/05/05 08:03:59;;;;;;;16.20;1.60;;;;;;;14.24;33.75;99830.86;25080;1316;3052288;-65
2022/05/05 08:06:28;;;;;;;4.60;1.40;;;;;;;14.26;33.12;99826.67;25116;1313;3026541;-66
2022/05/05 08:08:58;;;;;;;15.70;1.60;;;;;;;14.12;32.71;99835.02;25186;1319;3049678;-63
2022/05/05 08:11:28;;;;;;;9.50;1.30;;;;;;;14.18;32.71;99831.25;25108;1313;3026524;-63
2022/05/05 08:13:57;;;;;;;6.00;1.60;;;;;;;14.34;33.06;99829.67;25118;1312;3026888;-64
2022/05/05 08:16:26;;;;;;;8.20;1.70;;;;;;;14.41;32.83;99832.30;25188;1312;3026532;-62
2022/05/05 08:18:55;;;;;;;11.40;1.50;;;;;;;14.41;32.58;99830.58;25124;1313;3052728;-62
2022/05/05 08:21:24;;;;;;;5.00;1.70;;;;;;;14.22;32.54;99835.06;25108;1313;3028868;-65
2022/05/05 08:29:28;;;;;;;8.40;1.80;;;;;;;14.18;32.03;99839.06;25240;1315;3052018;-63
2022/05/05 08:31:57;;;;;;;8.10;1.50;;;;;;;13.95;31.60;99838.52;25088;1313;3026679;-62
2022/05/05 08:34:27;;;;;;;11.70;1.40;;;;;;;14.17;31.81;99843.16;25184;1313;3053663;-66
2022/05/05 08:36:56;;;;;;;4.30;1.80;;;;;;;14.30;31.27;99835.19;25088;1313;3026572;-64
2022/05/05 08:39:25;;;;;;;6.50;1.40;;;;;;;14.13;31.34;99840.98;25116;1313;3050215;-67
2022/05/05 08:41:54;;;;;;;5.40;1.60;;;;;;;14.33;31.42;99842.95;25118;1316;3026419;-63
2022/05/05 08:44:23;;;;;;;7.50;2.10;;;;;;;14.56;31.19;99846.24;25053;1315;3026469;-62
2022/05/05 08:46:54;;;;;;;14.20;1.60;;;;;;;14.59;31.17;99847.23;25025;1316;3049150;-67
2022/05/05 08:49:23;;;;;;;10.60;1.70;;;;;;;14.70;31.31;99846.48;25132;1316;3026552;-64
2022/05/05 08:52:11;;;;;;;6.70;1.30;;;;;;;14.81;30.96;99839.20;25118;1313;3056148;-66
2022/05/05 08:54:40;;;;;;;11.30;1.60;;;;;;;14.82;31.01;99840.05;25137;1313;3026228;-65
2022/05/05 08:57:09;;;;;;;4.50;1.50;;;;;;;15.03;31.03;99839.55;25048;1313;3026698;-65
2022/05/05 08:59:39;;;;;;;10.80;2.30;;;;;;;15.19;30.87;99843.53;25154;1313;3058819;-64
2022/05/05 09:02:10;;;;;;;15.20;1.80;;;;;;;15.18;30.51;99844.77;25108;1313;3026628;-65
2022/05/05 09:04:44;;;;;;;5.70;1.50;;;;;;;15.18;30.86;99841.24;25203;1313;3026877;-63
2022/05/05 09:07:14;;;;;;;2.80;1.60;;;;;;;15.32;31.05;99838.14;25162;1316;3053123;-65
2022/05/05 09:09:43;;;;;;;6.50;1.40;;;;;;;15.42;30.49;99835.98;25113;1316;3029187;-66
2022/05/05 09:12:19;;;;;;;7.00;1.60;;;;;;;15.49;29.91;99838.47;25174;1316;3054737;-62
2022/05/05 09:14:50;;;;;;;9.40;1.80;;;;;;;15.60;30.22;99832.16;25168;1316;3050768;-64
2022/05/05 09:17:20;;;;;;;2.80;1.70;;;;;;;15.78;30.02;99836.27;25097;1316;3026544;-66
2022/05/05 09:19:54;;;;;;;8.40;1.50;;;;;;;15.94;29.71;99834.74;25112;1316;3027300;-65
2022/05/05 09:22:25;;;;;;;4.40;1.40;;;;;;;16.14;29.68;99840.45;25097;1316;3052659;-65
2022/05/05 09:24:56;;;;;;;10.20;1.70;;;;;;;16.09;29.06;99835.36;25148;1316;3026720;-64
2022/05/05 09:27:29;;;;;;;11.20;1.70;;;;;;;16.25;28.89;99835.14;25127;1316;3026692;-64
2022/05/05 09:30:08;;;;;;;13.20;1.60;;;;;;;16.39;28.84;99832.63;25091;1316;3052010;-65
2022/05/05 09:32:38;;;;;;;8.60;1.50;;;;;;;16.44;28.39;99843.19;25114;1315;3053181;-63
2022/05/05 09:35:17;;;;;;;13.30;2.20;;;;;;;16.66;28.19;99837.80;25104;1315;3026094;-63
2022/05/05 09:37:48;;;;;;;8.70;1.30;;;;;;;16.73;28.11;99846.88;25108;1315;3069208;-63
2022/05/05 09:40:20;;;;;;;9.20;1.80;;;;;;;16.74;27.85;99852.86;25212;1315;3027916;-67
2022/05/05 09:42:53;;;;;;;9.50;2.30;;;;;;;16.82;27.40;99849.40;25264;1316;3026891;-67
2022/05/05 09:45:23;;;;;;;11.50;1.80;;;;;;;16.73;27.70;99846.39;25327;1316;3027236;-67
2022/05/05 09:47:54;;;;;;;7.90;2.00;;;;;;;16.82;27.66;99853.30;24787;1315;3504841;-67
2022/05/05 09:50:24;;;;;;;15.50;2.00;;;;;;;17.13;27.67;99852.25;25174;1314;3026682;-66
2022/05/05 09:58:37;;;;;;;14.00;1.90;;;;;;;17.48;27.06;99855.92;25336;1316;3071226;-66
2022/05/05 10:01:10;;;;;;;9.40;1.70;;;;;;;17.53;26.87;99856.91;25301;1314;3049067;-63
2022/05/05 10:06:40;;;;;;;6.00;1.40;;;;;;;17.70;26.19;99852.67;25388;1315;3056621;-69
2022/05/05 10:09:16;;;;;;;14.00;1.90;;;;;;;17.69;25.72;99854.48;25294;1314;3056059;-66
2022/05/05 10:11:45;;;;;;;8.50;1.90;;;;;;;17.64;25.44;99862.34;25161;1316;3050280;-65
2022/05/05 10:14:16;;;;;;;6.50;1.50;;;;;;;17.83;25.31;99859.85;25208;1316;3026857;-67
2022/05/05 10:16:45;;;;;;;7.60;1.60;;;;;;;17.94;25.54;99857.35;25156;1316;3026659;-65
2022/05/05 10:19:15;;;;;;;3.00;1.60;;;;;;;18.04;25.61;99864.19;25102;1316;3027228;-68
2022/05/05 10:22:01;;;;;;;6.40;1.80;;;;;;;18.03;24.92;99867.42;25234;1316;3026563;-65
2022/05/05 10:24:50;;;;;;;8.40;1.60;;;;;;;17.91;25.17;99863.98;25223;1316;3054650;-65
2022/05/05 10:27:19;;;;;;;6.60;1.50;;;;;;;17.74;25.68;99858.66;25209;1315;3067638;-65
2022/05/05 10:29:48;;;;;;;11.10;2.20;;;;;;;17.74;25.96;99858.31;25286;1315;3027392;-65
2022/05/05 10:32:20;;;;;;;7.80;1.80;;;;;;;17.91;26.07;99857.98;25313;1315;3051711;-63
2022/05/05 10:34:53;;;;;;;4.70;1.70;;;;;;;18.05;25.67;99868.16;25247;1316;3028328;-64
2022/05/05 10:37:32;;;;;;;7.30;1.80;;;;;;;18.10;25.82;99869.67;25333;1315;3026064;-63
2022/05/05 10:40:08;;;;;;;6.00;2.10;;;;;;;18.10;25.65;99862.93;25306;1316;3054819;-65
2022/05/05 10:42:44;;;;;;;8.20;1.50;;;;;;;18.04;25.37;99859.15;25283;1316;3054177;-69
2022/05/05 10:45:31;;;;;;;7.60;1.60;;;;;;;18.25;25.57;99865.54;25239;1316;3059270;-65
2022/05/05 10:48:06;;;;;;;7.80;1.60;;;;;;;18.36;24.45;99871.39;25218;1315;3049467;-67
2022/05/05 10:50:54;;;;;;;7.40;1.70;;;;;;;18.28;24.19;99872.02;25161;1316;3056132;-68
2022/05/05 10:53:29;;;;;;;8.50;1.80;;;;;;;18.29;24.15;99872.70;25233;1316;3051902;-68
2022/05/05 10:56:00;;;;;;;11.30;1.80;;;;;;;18.47;24.16;99876.27;25263;1316;3069692;-64
2022/05/05 10:59:07;;;;;;;12.30;2.00;;;;;;;18.43;24.29;99865.25;25164;1316;3028687;-68
2022/05/05 11:01:42;;;;;;;4.80;1.50;;;;;;;18.62;24.00;99865.55;25166;1316;3055399;-66
2022/05/05 11:04:28;;;;;;;5.90;1.70;;;;;;;18.66;24.35;99861.11;25223;1316;3052227;-66
2022/05/05 11:07:27;;;;;;;5.10;1.60;;;;;;;18.80;23.61;99857.54;25244;1316;3056964;-66
2022/05/05 11:09:58;;;;;;;8.40;1.80;;;;;;;18.86;23.79;99865.55;25171;1315;3049972;-66
2022/05/05 11:12:31;;;;;;;9.90;1.80;;;;;;;18.81;23.76;99867.63;25169;1315;3026576;-68
2022/05/05 11:23:42;;;;;;;3.60;1.40;;;;;;;19.38;22.74;99866.09;25218;1316;3055296;-67
2022/05/05 11:26:13;;;;;;;4.40;1.50;;;;;;;19.34;22.32;99867.46;25181;1315;3026632;-66
2022/05/05 11:28:42;;;;;;;6.30;1.70;;;;;;;19.50;22.47;99860.50;25135;1316;3029738;-66
2022/05/05 11:31:19;;;;;;;10.60;1.80;;;;;;;19.51;22.07;99862.95;25133;1316;3026427;-67
2022/05/05 11:33:55;;;;;;;7.70;1.70;;;;;;;19.51;22.25;99870.56;25192;1316;3052533;-68
2022/05/05 11:36:28;;;;;;;6.10;1.90;;;;;;;19.79;22.15;99870.70;25298;1316;3055566;-67
2022/05/05 11:38:57;;;;;;;10.10;2.10;;;;;;;19.89;21.95;99870.27;25226;1316;3026897;-67
2022/05/05 11:41:28;;;;;;;7.50;3.10;;;;;;;19.95;21.62;99865.64;25265;1315;3027485;-67
2022/05/05 11:44:17;;;;;;;6.40;1.60;;;;;;;19.89;21.69;99869.36;25316;1316;3025983;-67
2022/05/05 11:46:47;;;;;;;10.30;1.90;;;;;;;20.17;21.29;99875.52;25209;1316;3071211;-68
2022/05/05 11:49:16;;;;;;;5.60;1.70;;;;;;;20.23;21.20;99874.13;25592;1315;3026488;-70
2022/05/05 11:51:45;;;;;;;11.40;2.20;;;;;;;20.30;21.16;99867.91;25856;1314;3050253;-68
2022/05/05 11:54:15;;;;;;;5.70;1.40;;;;;;;20.40;21.41;99871.96;25913;1315;3027966;-67
2022/05/05 11:56:49;;;;;;;16.80;2.00;;;;;;;20.37;21.03;99869.88;25770;1315;3052581;-67
2022/05/05 12:02:15;;;;;;;12.70;2.30;;;;;;;20.32;20.28;99862.88;25200;1315;3068736;-70
2022/05/05 12:04:47;;;;;;;7.00;1.80;;;;;;;20.36;20.17;99871.04;25337;1316;3048795;-68
2022/05/05 12:07:22;;;;;;;5.90;1.60;;;;;;;20.51;20.01;99868.71;25219;1315;3026500;-66
2022/05/05 12:09:58;;;;;;;3.60;1.40;;;;;;;20.60;20.00;99872.84;25224;1316;3052759;-67
2022/05/05 12:12:30;;;;;;;6.80;1.80;;;;;;;20.64;19.86;99866.02;25199;1316;3055650;-67
2022/05/05 12:15:01;;;;;;;5.70;1.90;;;;;;;20.59;19.96;99870.26;25163;1316;3027094;-67
2022/05/05 12:17:43;;;;;;;8.60;2.00;;;;;;;20.69;19.77;99872.22;25140;1315;3051188;-67
2022/05/05 12:20:14;;;;;;;4.70;1.40;;;;;;;20.85;19.56;99862.48;25165;1316;3056309;-68
2022/05/05 12:22:44;;;;;;;7.10;1.50;;;;;;;21.05;19.50;99860.20;25135;1316;3026136;-68